Time;durP1;ratioP1;P1;durP2;ratioP2;P2;SDS_P1;SDS_P2;PMS_P1;PMS_P2;Temp;Humidity;BMP_temperature;BMP_pressure;BME280_temperature;BME280_humidity;BME280_pressure;Samples;Min_cycle;Max_cycle;Signal;HPM_P1;HPM_P2
2023/11/10 00:00:13;;;;;;;7.70;3.23;;;9.20;99.90;;;9.37;94.90;99330.66;4822748;29;20145;-64
2023/11/10 00:02:44;;;;;;;5.93;2.97;;;9.20;99.90;;;9.14;94.98;99283.69;4822674;29;20312;-66
2023/11/10 00:05:13;;;;;;;5.20;3.13;;;9.20;99.90;;;9.34;95.04;99325.41;4822723;29;20523;-64
2023/11/10 00:07:42;;;;;;;4.00;3.03;;;9.20;99.90;;;9.40;95.04;99333.19;4822604;29;20205;-64
2023/11/10 00:10:11;;;;;;;3.60;2.85;;;9.20;99.90;;;9.40;95.09;99341.09;4822245;29;20070;-63
2023/11/10 00:12:39;;;;;;;4.70;2.67;;;9.20;99.90;;;9.37;95.50;99339.41;4822085;29;20057;-65
2023/11/10 00:15:10;;;;;;;3.20;2.90;;;9.20;99.90;;;9.34;95.90;99328.94;4822147;29;20068;-65
2023/11/10 00:17:39;;;;;;;3.55;3.05;;;9.20;99.90;;;9.34;96.19;99338.63;4821992;29;20050;-65
2023/11/10 00:20:11;;;;;;;3.27;2.83;;;9.20;99.90;;;9.37;95.88;99338.56;4821946;29;20060;-65
2023/11/10 00:22:40;;;;;;;4.82;2.88;;;9.20;99.90;;;9.46;96.29;99343.59;4822207;29;20283;-65
2023/11/10 00:25:11;;;;;;;4.25;3.00;;;9.30;99.90;;;9.45;96.36;99337.44;4822584;29;20054;-68
2023/11/10 00:27:39;;;;;;;5.18;3.20;;;9.30;99.90;;;9.39;96.21;99327.03;4822398;29;20354;-68
2023/11/10 00:30:12;;;;;;;4.00;3.08;;;9.30;99.90;;;9.47;97.31;99321.56;4822306;29;20142;-68
2023/11/10 00:32:40;;;;;;;4.03;3.08;;;9.30;99.90;;;9.49;97.01;99327.69;4821887;29;20380;-68
2023/11/10 00:35:09;;;;;;;3.63;3.10;;;9.30;99.90;;;9.50;97.05;99310.97;4820627;29;20060;-68
2023/11/10 00:37:38;;;;;;;3.88;3.47;;;9.30;99.90;;;9.53;97.07;99319.66;4821928;29;20146;-68
2023/11/10 00:40:11;;;;;;;3.28;2.85;;;9.30;99.90;;;9.55;97.30;99317.84;4822099;29;20062;-68
2023/11/10 00:42:39;;;;;;;6.97;3.67;;;9.40;99.90;;;9.58;97.28;99309.00;4821903;29;20054;-67
2023/11/10 00:45:10;;;;;;;6.93;3.65;;;9.40;99.90;;;9.54;97.19;99307.34;4820254;29;20060;-68
2023/11/10 00:47:38;;;;;;;4.38;2.85;;;9.40;99.90;;;9.52;97.34;99307.38;4821657;29;20225;-68
2023/11/10 00:50:10;;;;;;;4.63;3.22;;;9.40;99.90;;;9.55;97.30;99298.50;4821746;29;20137;-68
2023/11/10 00:52:38;;;;;;;5.45;3.53;;;9.40;99.90;;;9.59;97.42;99306.31;4820503;29;20057;-67
2023/11/10 00:55:10;;;;;;;7.15;3.30;;;9.40;99.90;;;9.58;97.85;99287.88;4820302;29;20074;-68
2023/11/10 00:57:38;;;;;;;5.65;3.40;;;9.50;99.90;;;9.52;97.97;99299.47;4820325;29;20062;-68
2023/11/10 01:00:11;;;;;;;5.82;3.35;;;9.40;99.90;;;9.60;97.85;99304.53;4824440;29;20362;-68
2023/11/10 01:02:40;;;;;;;3.90;3.60;;;9.40;99.90;;;9.48;98.23;99299.56;4824758;29;20149;-68
2023/11/10 01:05:11;;;;;;;5.50;3.53;;;9.40;99.90;;;9.45;98.77;99303.16;4824978;29;20051;-68
2023/11/10 01:07:40;;;;;;;6.38;3.55;;;9.30;99.90;;;9.46;98.69;99312.81;4823457;29;20170;-68
2023/11/10 01:10:10;;;;;;;8.07;4.03;;;9.30;99.90;;;9.49;98.86;99294.25;4823492;29;20145;-68
2023/11/10 01:12:38;;;;;;;3.70;3.40;;;9.40;99.90;;;9.45;99.43;99311.06;4824872;29;20050;-68
2023/11/10 01:15:11;;;;;;;4.90;3.75;;;9.30;99.90;;;9.47;99.04;99280.22;4824912;29;20057;-68
2023/11/10 01:17:40;;;;;;;7.82;4.10;;;9.30;99.90;;;9.48;99.70;99286.38;4824756;29;20065;-68
2023/11/10 01:20:11;;;;;;;6.63;4.13;;;9.30;99.90;;;9.52;99.27;99286.28;4824592;29;20050;-68
2023/11/10 01:22:41;;;;;;;6.15;3.80;;;9.30;99.90;;;9.52;99.50;99288.03;4824842;29;20217;-67
2023/11/10 01:25:12;;;;;;;5.53;3.70;;;9.40;99.90;;;9.25;99.70;99247.41;4824721;29;20046;-68
2023/11/10 01:27:41;;;;;;;;;;;9.30;99.90;;;9.56;99.27;99279.13;4824920;29;20046;-68
2023/11/10 01:30:13;;;;;;;6.15;3.75;;;9.40;99.90;;;9.43;99.10;99275.94;4824691;29;19975;-68
2023/11/10 01:32:41;;;;;;;5.28;4.10;;;9.30;99.90;;;9.46;99.31;99309.28;4823508;29;20051;-68
2023/11/10 01:35:11;;;;;;;6.00;3.67;;;9.30;99.90;;;9.58;98.71;99279.97;4823452;29;20078;-68
2023/11/10 01:37:42;;;;;;;4.78;3.85;;;9.40;99.90;;;9.56;98.82;99279.13;4824934;29;20050;-68
2023/11/10 01:40:11;;;;;;;6.50;3.60;;;9.40;99.90;;;9.54;98.64;99276.50;4824835;29;20054;-67
2023/11/10 01:42:40;;;;;;;7.88;3.70;;;9.40;99.90;;;9.41;98.53;99280.38;4824796;29;20058;-68
2023/11/10 01:45:11;;;;;;;4.30;3.42;;;9.30;99.90;;;9.46;98.44;99272.34;4824643;29;20050;-68
2023/11/10 01:47:41;;;;;;;6.30;3.95;;;9.30;99.90;;;9.44;98.97;99290.88;4824599;29;20074;-68
2023/11/10 01:50:11;;;;;;;4.40;3.67;;;9.30;99.90;;;9.45;98.88;99287.31;4824774;29;20442;-68
2023/11/10 01:52:41;;;;;;;4.15;3.60;;;9.30;99.90;;;9.46;98.97;99280.28;4824332;29;20415;-68
2023/11/10 01:55:11;;;;;;;6.18;3.40;;;9.30;99.90;;;9.40;99.38;99288.34;4824567;29;20050;-67
2023/11/10 01:57:40;;;;;;;4.43;3.40;;;9.20;99.90;;;9.41;99.50;99277.75;4823070;29;20365;-68
2023/11/10 02:00:12;;;;;;;4.18;3.20;;;9.20;99.90;;;9.40;99.37;99283.94;4838238;29;20062;-68
2023/11/10 02:02:40;;;;;;;5.63;3.10;;;9.20;99.90;;;9.41;99.35;99268.94;4824246;29;20054;-68
2023/11/10 02:05:09;;;;;;;5.15;3.60;;;9.20;99.90;;;9.39;99.87;99271.63;4823019;29;20089;-68
2023/11/10 02:07:37;;;;;;;9.13;3.70;;;9.20;99.90;;;9.31;99.78;99268.31;4824336;29;20142;-68
2023/11/10 02:10:07;;;;;;;5.07;3.22;;;9.20;99.90;;;9.30;100.00;99271.00;4823258;29;20524;-68
2023/11/10 02:12:36;;;;;;;6.10;3.80;;;9.10;99.90;;;9.35;100.00;99280.53;4822652;29;20058;-68
2023/11/10 02:15:07;;;;;;;7.10;3.50;;;9.20;99.90;;;9.43;100.00;99275.06;4822860;29;20134;-68
2023/11/10 02:17:37;;;;;;;;;;;9.20;99.90;;;9.27;100.00;99271.09;4822981;29;20064;-68
2023/11/10 02:20:07;;;;;;;4.57;3.65;;;9.10;99.90;;;9.31;100.00;99265.69;4823854;29;20450;-68
2023/11/10 02:22:35;;;;;;;11.10;3.80;;;9.10;99.90;;;9.35;100.00;99275.25;4824283;29;20062;-67
2023/11/10 02:25:13;;;;;;;8.55;3.60;;;9.20;99.90;;;9.37;100.00;99262.88;4824052;29;20480;-68
2023/11/10 02:27:42;;;;;;;5.82;3.75;;;9.20;99.90;;;9.48;100.00;99271.41;4824061;29;20083;-68
2023/11/10 02:30:12;;;;;;;12.52;4.03;;;9.30;99.90;;;9.37;100.00;99249.69;4822692;29;20170;-68
2023/11/10 02:32:42;;;;;;;8.00;3.92;;;9.30;99.90;;;9.35;100.00;99229.56;4822830;29;20050;-68
2023/11/10 02:35:12;;;;;;;9.25;4.50;;;9.30;99.90;;;9.45;100.00;99271.47;4822762;29;20097;-68
2023/11/10 02:37:41;;;;;;;9.68;4.05;;;9.30;99.90;;;9.32;100.00;99243.69;4822361;29;20130;-67
2023/11/10 02:40:12;;;;;;;10.88;4.18;;;9.30;99.90;;;9.40;100.00;99267.22;4823609;29;20046;-68
2023/11/10 02:42:40;;;;;;;;;;;9.30;99.90;;;9.36;100.00;99279.63;4823756;29;20418;-68
2023/11/10 02:45:10;;;;;;;9.35;4.60;;;9.20;99.90;;;9.39;100.00;99279.53;4822336;29;20303;-68
2023/11/10 02:47:39;;;;;;;11.35;5.05;;;9.20;99.90;;;9.43;100.00;99275.94;4823673;29;20050;-68
2023/11/10 02:50:08;;;;;;;7.10;4.05;;;9.20;99.90;;;9.49;100.00;99290.72;4822160;29;20054;-68
2023/11/10 02:52:37;;;;;;;8.98;4.53;;;9.30;99.90;;;9.33;100.00;99279.69;4823243;29;20138;-68
2023/11/10 02:55:05;;;;;;;10.02;4.05;;;9.20;99.90;;;9.42;100.00;99268.06;4823273;29;20145;-68
2023/11/10 02:57:36;;;;;;;9.65;4.45;;;9.20;99.90;;;9.35;100.00;99275.25;4823287;29;20046;-68
2023/11/10 03:00:06;;;;;;;8.90;4.82;;;9.20;99.90;;;9.39;100.00;99262.88;4822997;29;20084;-68
2023/11/10 03:02:36;;;;;;;10.38;3.88;;;9.20;99.90;;;9.40;100.00;99272.50;4823566;29;20138;-68
2023/11/10 03:05:05;;;;;;;;;;;9.30;99.90;;;9.45;100.00;99274.13;4823563;29;20127;-67
2023/11/10 03:07:38;;;;;;;7.90;4.40;;;9.30;99.90;;;9.39;100.00;99271.63;4821693;29;20293;-68
2023/11/10 03:10:08;;;;;;;7.93;4.28;;;9.20;99.90;;;9.40;100.00;99277.78;4823140;29;20058;-68
2023/11/10 03:12:38;;;;;;;10.18;4.38;;;9.20;99.90;;;9.40;100.00;99268.09;4823118;29;20084;-68
2023/11/10 03:15:08;;;;;;;8.70;4.65;;;9.20;99.90;;;9.40;100.00;99270.75;4823360;29;20084;-68
2023/11/10 03:17:36;;;;;;;10.23;4.30;;;9.20;99.90;;;9.33;100.00;99266.50;4822838;29;20061;-68
2023/11/10 03:20:06;;;;;;;6.97;4.03;;;9.20;99.90;;;9.27;100.00;99265.81;4822857;29;20111;-68
2023/11/10 03:22:34;;;;;;;7.70;4.28;;;9.10;99.90;;;9.31;100.00;99265.69;4822398;29;20481;-68
2023/11/10 03:25:03;;;;;;;7.15;3.80;;;9.20;99.90;;;9.38;100.00;99279.59;4822801;29;20046;-68
2023/11/10 03:27:32;;;;;;;8.18;3.92;;;9.20;99.90;;;9.33;100.00;99277.06;4823026;29;20043;-68
2023/11/10 03:30:01;;;;;;;10.70;4.45;;;9.10;99.90;;;9.42;100.00;99286.53;4822433;29;20062;-68
2023/11/10 03:32:33;;;;;;;10.87;4.03;;;9.20;99.90;;;9.34;100.00;99270.03;4822718;29;20106;-68
2023/11/10 03:35:03;;;;;;;8.82;4.00;;;9.20;99.90;;;9.27;100.00;99264.00;4821438;29;20774;-68
2023/11/10 03:37:31;;;;;;;9.02;4.00;;;9.10;99.90;;;9.32;100.00;99270.06;4821239;29;20126;-68
2023/11/10 03:40:03;;;;;;;6.97;4.20;;;9.20;99.90;;;9.36;100.00;99286.69;4822487;29;20393;-68
2023/11/10 03:42:36;;;;;;;7.25;3.83;;;9.20;99.90;;;9.34;100.00;99286.72;4822826;29;20138;-68
2023/11/10 03:45:08;;;;;;;10.02;3.95;;;9.20;99.90;;;9.32;100.00;99270.06;4821334;29;20076;-68
2023/11/10 03:47:36;;;;;;;9.38;3.70;;;9.10;99.90;;;9.35;100.00;99258.56;4822723;29;20473;-68
2023/11/10 03:50:07;;;;;;;11.07;4.20;;;9.20;99.90;;;9.24;100.00;99271.16;4822336;29;20521;-68
2023/11/10 03:52:35;;;;;;;10.73;4.43;;;9.10;99.90;;;9.23;100.00;99264.16;4822380;29;20091;-68
2023/11/10 03:55:05;;;;;;;7.03;3.80;;;9.10;99.90;;;9.16;100.00;99250.25;4822380;29;20042;-68
2023/11/10 03:57:33;;;;;;;14.00;4.70;;;9.10;99.90;;;9.32;100.00;99272.69;4822661;29;20054;-68
2023/11/10 04:00:02;;;;;;;14.20;4.35;;;9.10;99.90;;;9.35;100.00;99274.41;4822356;29;20123;-68
2023/11/10 04:02:33;;;;;;;8.10;3.88;;;9.20;99.90;;;9.32;100.00;99267.44;4822429;29;20062;-68
2023/11/10 04:05:01;;;;;;;12.15;4.45;;;9.20;99.90;;;9.31;100.00;99278.88;4822447;29;20051;-68
2023/11/10 04:07:30;;;;;;;9.45;4.13;;;9.10;99.90;;;9.29;100.00;99270.13;4822672;29;20050;-67
2023/11/10 04:09:58;;;;;;;11.88;4.13;;;9.20;99.90;;;9.22;100.00;99280.88;4822620;29;20058;-68
2023/11/10 04:12:27;;;;;;;10.98;4.22;;;9.10;99.90;;;9.36;100.00;99292.84;4822512;29;20497;-68
2023/11/10 04:14:55;;;;;;;11.23;4.20;;;9.20;99.90;;;9.38;100.00;99284.88;4822520;29;20046;-68
2023/11/10 04:17:24;;;;;;;9.95;4.40;;;9.20;99.90;;;9.39;100.00;99291.91;4822063;29;20057;-68
2023/11/10 04:19:54;;;;;;;6.57;3.80;;;9.20;99.90;;;9.36;100.00;99295.47;4822325;29;20135;-68
2023/11/10 04:22:23;;;;;;;15.00;4.25;;;9.20;99.90;;;9.39;100.00;99298.00;4822213;29;20296;-67
2023/11/10 04:24:51;;;;;;;10.50;4.43;;;9.20;99.90;;;9.37;100.00;99291.91;4822487;29;20054;-68
2023/11/10 04:27:19;;;;;;;8.55;4.00;;;9.20;99.90;;;9.36;100.00;99294.59;4822244;29;20062;-68
2023/11/10 04:29:48;;;;;;;8.60;4.30;;;9.20;99.90;;;9.42;100.00;99302.34;4822687;29;20051;-68
2023/11/10 04:32:16;;;;;;;9.07;4.88;;;9.20;99.90;;;9.32;100.00;99279.75;4822680;29;20054;-68
2023/11/10 04:34:44;;;;;;;9.65;4.20;;;9.20;99.90;;;9.39;100.00;99292.75;4824699;29;20061;-68
2023/11/10 04:37:18;;;;;;;12.85;4.68;;;9.20;99.90;;;9.39;100.00;99282.19;4825766;29;20054;-68
2023/11/10 04:39:46;;;;;;;;;;;9.20;99.90;;;9.37;100.00;99285.78;4825942;29;20046;-68
2023/11/10 04:42:14;;;;;;;12.68;4.03;;;9.20;99.90;;;9.32;100.00;99280.63;4826059;29;19924;-67
2023/11/10 04:44:43;;;;;;;10.93;4.28;;;9.20;99.90;;;9.40;100.00;99291.84;4825804;29;20047;-68
2023/11/10 04:47:12;;;;;;;9.85;5.00;;;9.20;99.90;;;9.39;100.00;99291.91;4825477;29;20397;-68
2023/11/10 04:49:41;;;;;;;15.47;5.27;;;9.20;99.90;;;9.40;100.00;99289.22;4825481;29;20439;-68
2023/11/10 04:52:09;;;;;;;9.63;4.70;;;9.20;99.90;;;9.41;100.00;99288.28;4825916;29;20492;-68
2023/11/10 04:54:41;;;;;;;8.43;4.30;;;9.20;99.90;;;9.42;100.00;99279.50;4825380;29;20146;-68
2023/11/10 04:57:11;;;;;;;8.85;4.40;;;9.30;99.90;;;9.43;100.00;99278.56;4825546;29;20145;-68
2023/11/10 04:59:40;;;;;;;14.40;4.78;;;9.20;99.90;;;9.33;100.00;99276.22;4825276;29;20059;-68
2023/11/10 05:02:09;;;;;;;10.88;4.53;;;9.20;99.90;;;9.40;100.00;99265.47;4825181;29;20141;-68
2023/11/10 05:04:39;;;;;;;10.45;5.07;;;9.20;99.90;;;9.35;100.00;99272.63;4825082;29;20054;-68
2023/11/10 05:07:08;;;;;;;15.90;4.78;;;9.20;99.90;;;9.34;100.00;99262.09;4825216;29;20466;-68
2023/11/10 05:09:39;;;;;;;12.30;4.87;;;9.20;99.90;;;9.29;100.00;99271.91;4824939;29;20165;-68
2023/11/10 05:12:08;;;;;;;10.68;4.38;;;9.20;99.90;;;9.35;100.00;99280.53;4825439;29;20050;-68
2023/11/10 05:14:39;;;;;;;11.13;4.60;;;9.20;99.90;;;9.37;100.00;99294.53;4825097;29;20049;-68
2023/11/10 05:17:08;;;;;;;15.25;4.32;;;9.20;99.90;;;9.40;100.00;99264.59;4824779;29;20046;-68
2023/11/10 05:19:37;;;;;;;10.68;4.55;;;9.20;99.90;;;9.34;100.00;99284.09;4824904;29;20046;-68
2023/11/10 05:22:06;;;;;;;15.55;4.53;;;9.20;99.90;;;9.37;100.00;99270.81;4824526;29;20047;-68
2023/11/10 05:24:42;;;;;;;10.32;4.18;;;9.20;99.90;;;9.39;100.00;99271.63;4825122;29;20185;-68
2023/11/10 05:27:10;;;;;;;8.48;4.22;;;9.20;99.90;;;9.51;100.00;99281.00;4823266;29;20138;-68
2023/11/10 05:29:39;;;;;;;10.90;4.25;;;9.30;99.90;;;9.52;100.00;99283.63;4823113;29;20149;-68
2023/11/10 05:32:07;;;;;;;10.27;4.45;;;9.30;99.90;;;9.60;100.00;99286.06;4824336;29;20058;-68
2023/11/10 05:34:37;;;;;;;9.48;4.35;;;9.40;99.90;;;9.58;100.00;99288.72;4824320;29;20144;-68
2023/11/10 05:37:09;;;;;;;8.13;4.10;;;9.40;99.90;;;9.62;100.00;99286.91;4824185;29;20084;-68
2023/11/10 05:39:38;;;;;;;9.35;4.25;;;9.50;99.90;;;9.45;100.00;99274.13;4824288;29;20441;-68
2023/11/10 05:42:07;;;;;;;10.82;4.63;;;9.30;99.90;;;9.33;100.00;99255.94;4822925;29;20137;-68
2023/11/10 05:44:36;;;;;;;13.10;4.40;;;9.20;99.90;;;9.33;100.00;99266.50;4823866;29;20476;-67
2023/11/10 05:47:04;;;;;;;8.80;4.13;;;9.20;99.90;;;9.24;100.00;99266.75;4823757;29;20500;-67
2023/11/10 05:49:33;;;;;;;12.32;4.53;;;9.10;99.90;;;9.32;100.00;99262.16;4824242;29;20074;-68
2023/11/10 05:52:02;;;;;;;11.98;4.53;;;9.10;99.90;;;9.34;100.00;99254.19;4824195;29;20042;-68
2023/11/10 05:54:30;;;;;;;11.88;4.75;;;9.20;99.90;;;9.28;100.00;99273.69;4824388;29;20097;-67
2023/11/10 05:56:58;;;;;;;8.32;4.43;;;9.10;99.90;;;9.32;100.00;99271.81;4824019;29;20065;-68
2023/11/10 05:59:28;;;;;;;13.23;4.70;;;9.20;99.90;;;9.34;100.00;99278.81;4823540;29;20153;-68
2023/11/10 06:01:57;;;;;;;10.27;4.93;;;9.20;99.90;;;9.36;100.00;99277.00;4824224;29;20058;-68
2023/11/10 06:04:25;;;;;;;10.30;4.10;;;9.20;99.90;;;9.42;100.00;99283.88;4824115;29;20652;-67
2023/11/10 06:07:02;;;;;;;10.40;4.38;;;9.30;99.90;;;9.44;100.00;99274.16;4823697;29;20050;-67
2023/11/10 06:09:32;;;;;;;8.73;4.25;;;9.20;99.90;;;9.37;100.00;99265.53;4823871;29;20058;-68
2023/11/10 06:12:00;;;;;;;10.68;4.28;;;9.20;99.90;;;9.35;100.00;99275.25;4823483;29;20054;-67
2023/11/10 06:14:30;;;;;;;12.00;3.97;;;9.20;99.90;;;9.43;100.00;99283.84;4823621;29;20133;-67
2023/11/10 06:16:59;;;;;;;14.73;4.85;;;9.20;99.90;;;9.43;100.00;99277.69;4823616;29;20111;-67
2023/11/10 06:19:27;;;;;;;11.82;4.65;;;9.30;99.90;;;9.44;100.00;99288.22;4823500;29;20464;-67
2023/11/10 06:21:55;;;;;;;11.43;4.20;;;9.30;99.90;;;9.36;100.00;99273.50;4823323;29;20084;-67
2023/11/10 06:24:24;;;;;;;12.40;4.15;;;9.20;99.90;;;9.35;100.00;99263.84;4823688;29;20489;-67
2023/11/10 06:26:52;;;;;;;7.97;3.65;;;9.20;99.90;;;9.33;100.00;99289.41;4823385;29;20073;-67
2023/11/10 06:29:20;;;;;;;6.88;3.67;;;9.20;99.90;;;9.35;100.00;99287.59;4823711;29;20072;-67
2023/11/10 06:31:53;;;;;;;6.88;3.80;;;9.20;99.90;;;9.33;100.00;99282.34;4823361;29;20245;-67
2023/11/10 06:34:22;;;;;;;10.55;3.83;;;9.20;99.90;;;9.34;100.00;99330.69;4823672;29;20054;-67
2023/11/10 06:36:51;;;;;;;6.85;3.58;;;9.20;99.90;;;9.26;100.00;99290.44;4822169;29;20446;-66
2023/11/10 06:39:19;;;;;;;11.07;3.97;;;9.10;99.90;;;9.27;100.00;99271.09;4823402;29;20141;-68
2023/11/10 06:41:47;;;;;;;12.02;4.47;;;9.10;99.90;;;9.19;100.00;99279.19;4823199;29;20111;-67
2023/11/10 06:44:19;;;;;;;9.63;4.85;;;9.10;99.90;;;9.21;100.00;99306.41;4823496;29;20073;-67
2023/11/10 06:46:47;;;;;;;8.23;4.20;;;9.10;99.90;;;9.21;100.00;99306.41;4823210;29;20054;-67
2023/11/10 06:49:17;;;;;;;9.10;4.28;;;9.10;99.90;;;9.18;100.00;99301.19;4822089;29;20463;-67
2023/11/10 06:51:48;;;;;;;8.98;4.70;;;9.00;99.90;;;9.25;100.00;99304.56;4823100;29;20051;-67
2023/11/10 06:54:17;;;;;;;11.23;4.93;;;9.10;99.90;;;9.25;100.00;99310.69;4823508;29;20050;-67
2023/11/10 06:56:45;;;;;;;8.05;4.22;;;9.10;99.90;;;9.31;100.00;99315.81;4822690;29;20069;-67
2023/11/10 06:59:14;;;;;;;12.40;4.95;;;9.10;99.90;;;9.36;100.00;99302.50;4823317;29;20476;-67
2023/11/10 07:01:42;;;;;;;6.60;4.20;;;9.20;99.90;;;9.24;100.00;99281.69;4821559;29;20530;-67
2023/11/10 07:04:12;;;;;;;10.95;4.75;;;9.20;99.90;;;9.42;100.00;99303.22;4823658;29;20046;-68
2023/11/10 07:06:42;;;;;;;9.32;4.82;;;9.30;99.90;;;9.42;100.00;99295.31;4823314;29;20125;-67
2023/11/10 07:09:12;;;;;;;10.20;4.85;;;9.30;99.90;;;9.45;100.00;99303.16;4823291;29;20112;-67
2023/11/10 07:11:41;;;;;;;11.73;4.43;;;9.30;99.90;;;9.48;100.00;99310.13;4823442;29;20050;-67
2023/11/10 07:14:09;;;;;;;12.30;4.60;;;9.30;99.90;;;9.50;100.00;99310.97;4823980;29;20119;-67
2023/11/10 07:16:38;;;;;;;12.23;4.95;;;9.30;99.90;;;9.27;100.00;99257.91;4823320;29;20398;-67
2023/11/10 07:19:07;;;;;;;10.70;4.63;;;9.30;99.90;;;9.55;100.00;99306.41;4822949;29;20046;-67
2023/11/10 07:21:38;;;;;;;8.03;4.07;;;9.40;99.90;;;9.65;100.00;99323.75;4822841;29;20073;-67
2023/11/10 07:24:09;;;;;;;9.27;4.05;;;9.50;99.90;;;9.67;100.00;99317.53;4821734;29;20415;-67
2023/11/10 07:26:37;;;;;;;;;;;9.50;99.90;;;9.68;100.00;99307.81;4823775;29;20062;-67
2023/11/10 07:29:05;;;;;;;13.25;4.70;;;9.50;99.90;;;9.66;100.00;99307.88;4822997;29;19960;-66
2023/11/10 07:31:33;;;;;;;6.80;3.83;;;9.50;99.90;;;9.60;100.00;99297.47;4823252;29;20511;-64
2023/11/10 07:34:03;;;;;;;7.40;4.35;;;9.50;99.90;;;9.57;100.00;99308.13;4823038;29;20121;-64
2023/11/10 07:36:33;;;;;;;8.10;4.10;;;9.40;99.90;;;9.70;100.00;99303.38;4822596;29;20597;-64
2023/11/10 07:39:01;;;;;;;8.80;3.95;;;9.50;99.90;;;9.76;100.00;99295.28;4822644;29;20115;-64
2023/11/10 07:41:31;;;;;;;6.60;3.80;;;9.60;99.90;;;9.65;100.00;99305.28;4822978;29;20253;-64
2023/11/10 07:43:59;;;;;;;8.20;4.20;;;9.50;99.90;;;9.68;100.00;99306.06;4821520;29;20062;-64
2023/11/10 07:46:28;;;;;;;9.70;4.05;;;9.50;99.90;;;9.66;100.00;99297.31;4822676;29;20050;-62
2023/11/10 07:48:57;;;;;;;8.57;4.05;;;9.50;99.90;;;9.76;100.00;99303.22;4822673;29;20070;-67
2023/11/10 07:51:26;;;;;;;11.63;4.60;;;9.60;99.90;;;9.80;100.00;99300.47;4822769;29;20058;-68
2023/11/10 07:53:55;;;;;;;14.30;4.35;;;9.60;99.90;;;9.73;100.00;99285.72;4821439;29;20370;-68
2023/11/10 07:56:23;;;;;;;10.55;3.83;;;9.60;99.90;;;9.70;100.00;99291.06;4822485;29;20418;-67
2023/11/10 07:58:53;;;;;;;12.38;4.25;;;9.60;99.90;;;9.61;100.00;99283.38;4822501;29;20111;-69
2023/11/10 08:01:22;;;;;;;6.82;4.07;;;9.50;99.90;;;9.76;100.00;99296.16;4820896;29;20066;-64
2023/11/10 08:03:51;;;;;;;8.53;3.87;;;9.60;99.90;;;9.72;100.00;99291.88;4822613;29;20061;-68
2023/11/10 08:06:19;;;;;;;10.07;3.85;;;9.60;99.90;;;9.71;100.00;99278.72;4822438;29;20046;-67
2023/11/10 08:08:48;;;;;;;9.13;3.70;;;9.60;99.90;;;9.74;99.87;99294.47;4821948;29;20369;-65
2023/11/10 08:11:16;;;;;;;8.63;3.70;;;9.60;99.90;;;9.70;98.84;99304.25;4821361;29;20522;-66
2023/11/10 08:13:45;;;;;;;5.55;3.55;;;9.60;99.90;;;9.71;98.59;99290.16;4822636;29;20381;-64
2023/11/10 08:16:14;;;;;;;6.50;3.88;;;9.60;99.90;;;9.75;98.29;99281.25;4822562;29;20061;-66
2023/11/10 08:18:43;;;;;;;5.95;3.75;;;9.60;99.90;;;9.74;98.54;99295.34;4822314;29;20051;-67
2023/11/10 08:21:17;;;;;;;12.85;4.50;;;9.60;99.90;;;9.74;99.17;99303.28;4821171;29;20417;-67
2023/11/10 08:23:46;;;;;;;8.50;4.05;;;9.60;99.90;;;9.70;99.32;99295.44;4822032;29;20472;-65
2023/11/10 08:26:14;;;;;;;11.35;4.60;;;9.60;99.90;;;9.63;99.21;99307.97;4822225;29;20053;-66
2023/11/10 08:28:43;;;;;;;13.30;4.38;;;9.50;99.90;;;9.53;99.69;99285.34;4820811;29;20127;-63
2023/11/10 08:31:11;;;;;;;14.85;4.70;;;9.50;99.90;;;9.54;100.00;99275.66;4822023;29;20415;-63
2023/11/10 08:33:41;;;;;;;11.18;4.25;;;9.40;99.90;;;9.53;100.00;99269.50;4821989;29;20129;-63
2023/11/10 08:36:10;;;;;;;9.87;4.60;;;9.40;99.90;;;9.47;100.00;99274.06;4821905;29;20066;-63
2023/11/10 08:38:38;;;;;;;13.68;4.85;;;9.40;99.90;;;9.46;100.00;99277.63;4821842;29;20334;-63
2023/11/10 08:41:07;;;;;;;9.18;4.57;;;9.40;99.90;;;9.52;100.00;99273.06;4822197;29;20060;-62
2023/11/10 08:43:35;;;;;;;11.90;4.45;;;9.40;99.90;;;9.52;100.00;99275.72;4821771;29;20050;-63
2023/11/10 08:46:06;;;;;;;8.23;4.07;;;9.40;99.90;;;9.49;100.00;99261.72;4821957;29;20145;-63
2023/11/10 08:48:36;;;;;;;;;;;9.40;99.90;;;9.62;100.00;99285.09;4820690;29;20050;-63
2023/11/10 08:51:06;;;;;;;9.00;4.43;;;9.50;99.90;;;9.53;100.00;99274.78;4821791;29;19932;-64
2023/11/10 08:53:36;;;;;;;8.70;4.38;;;9.40;99.90;;;9.62;100.00;99271.91;4821979;29;20054;-64
2023/11/10 08:56:06;;;;;;;9.15;4.05;;;9.50;99.90;;;9.54;100.00;99284.44;4821465;29;20042;-64
2023/11/10 08:58:34;;;;;;;8.38;4.35;;;9.40;99.90;;;9.64;100.00;99293.84;4821494;29;20066;-63
2023/11/10 09:01:03;;;;;;;11.80;4.50;;;9.50;99.90;;;9.66;100.00;99270.03;4821629;29;20477;-64
2023/11/10 09:03:31;;;;;;;8.80;4.95;;;9.50;99.90;;;9.70;100.00;99280.50;4821493;29;20050;-63
2023/11/10 09:06:00;;;;;;;14.80;5.28;;;9.50;99.90;;;9.62;100.00;99278.97;4821687;29;20050;-64
2023/11/10 09:08:31;;;;;;;10.45;5.05;;;9.50;99.90;;;9.67;100.00;99267.38;4821859;29;20122;-64
2023/11/10 09:10:59;;;;;;;11.43;5.28;;;9.50;99.90;;;9.53;100.00;99256.31;4821501;29;20050;-64
2023/11/10 09:13:28;;;;;;;8.85;5.50;;;9.50;99.90;;;9.56;100.00;99269.41;4821484;29;20412;-63
2023/11/10 09:15:56;;;;;;;13.15;5.90;;;9.50;99.90;;;9.64;100.00;99278.00;4821205;29;20046;-64
2023/11/10 09:18:30;;;;;;;12.05;6.18;;;9.50;99.90;;;9.68;100.00;99270.88;4821673;29;20129;-63
2023/11/10 09:20:58;;;;;;;10.13;5.97;;;9.60;99.90;;;9.70;100.00;99269.06;4823894;29;20050;-64
2023/11/10 09:23:28;;;;;;;10.57;6.28;;;9.60;99.90;;;9.46;100.00;99246.84;4824173;29;20058;-64
2023/11/10 09:25:58;;;;;;;14.10;6.70;;;9.50;99.90;;;9.66;100.00;99254.19;4823319;29;20062;-65
2023/11/10 09:28:27;;;;;;;14.13;6.80;;;9.50;99.90;;;9.76;100.00;99275.06;4823306;29;20062;-64
2023/11/10 09:30:55;;;;;;;11.23;6.28;;;9.60;99.90;;;9.69;100.00;99241.81;4824226;29;20159;-64
2023/11/10 09:33:25;;;;;;;11.80;6.70;;;9.60;99.90;;;9.48;100.00;99245.03;4824235;29;20129;-64
2023/11/10 09:35:53;;;;;;;14.88;6.10;;;9.60;99.90;;;9.75;100.00;99246.06;4824190;29;20138;-64
2023/11/10 09:38:23;;;;;;;11.90;5.90;;;9.60;99.90;;;9.81;100.00;99254.66;4824271;29;20054;-64
2023/11/10 09:40:52;;;;;;;13.77;5.80;;;9.60;99.90;;;9.81;100.00;99249.38;4824093;29;20389;-64
2023/11/10 09:43:25;;;;;;;11.43;5.90;;;9.60;99.90;;;9.93;100.00;99251.69;4824482;29;20054;-64
2023/11/10 09:45:55;;;;;;;10.15;5.55;;;9.80;99.90;;;9.83;100.00;99231.72;4824194;29;20082;-64
2023/11/10 09:48:24;;;;;;;15.07;5.93;;;9.70;99.90;;;9.91;100.00;99239.47;4824119;29;20145;-64
2023/11/10 09:50:57;;;;;;;14.63;5.78;;;9.80;99.90;;;9.95;100.00;99249.00;4824177;29;20103;-64
2023/11/10 09:53:26;;;;;;;11.18;5.78;;;9.80;99.90;;;9.94;100.00;99229.66;4824175;29;20114;-64
2023/11/10 09:55:55;;;;;;;10.45;5.85;;;9.80;99.90;;;9.99;100.00;99248.00;4824151;29;20039;-65
2023/11/10 09:58:26;;;;;;;11.43;5.38;;;9.80;99.90;;;9.98;100.00;99246.28;4824482;29;20058;-65
2023/11/10 10:00:56;;;;;;;10.65;5.78;;;9.80;99.90;;;9.60;100.00;99167.31;4824296;29;20069;-64
2023/11/10 10:03:25;;;;;;;8.80;5.50;;;9.90;99.90;;;10.06;100.00;99232.88;4824418;29;20141;-66
2023/11/10 10:05:53;;;;;;;13.43;5.90;;;9.90;99.90;;;9.98;100.00;99262.13;4824596;29;20047;-65
2023/11/10 10:08:22;;;;;;;10.82;5.95;;;9.80;99.90;;;10.03;100.00;99249.66;4824559;29;20105;-65
2023/11/10 10:10:51;;;;;;;9.27;5.32;;;9.90;99.90;;;9.96;100.00;99253.38;4823965;29;20054;-65
2023/11/10 10:13:20;;;;;;;9.38;5.70;;;9.80;99.90;;;9.96;100.00;99259.53;4823932;29;20058;-65
2023/11/10 10:15:50;;;;;;;11.63;5.50;;;9.80;99.90;;;10.08;100.00;99246.91;4824174;29;20057;-65
2023/11/10 10:18:24;;;;;;;13.27;6.10;;;9.90;99.90;;;10.09;100.00;99260.06;4824777;29;20053;-65
2023/11/10 10:21:00;;;;;;;10.23;5.13;;;9.90;99.90;;;10.17;100.00;99244.00;4824243;29;20039;-65
2023/11/10 10:23:28;;;;;;;10.10;5.10;;;9.90;99.90;;;10.18;100.00;99237.84;4823988;29;20438;-65
2023/11/10 10:25:59;;;;;;;11.75;5.10;;;10.00;99.90;;;10.24;100.00;99238.50;4823903;29;20155;-65
2023/11/10 10:28:27;;;;;;;10.45;4.93;;;10.00;99.90;;;10.30;100.00;99248.91;4823801;29;20050;-65
2023/11/10 10:30:57;;;;;;;13.88;5.05;;;10.10;99.90;;;10.36;100.00;99246.06;4823035;29;20053;-66
2023/11/10 10:33:27;;;;;;;12.00;4.85;;;10.20;99.90;;;10.32;100.00;99228.56;4823881;29;20046;-64